Airfield :
LOGIN :

Register | Disclaimer

   EN    FR    IT 

 










Legend :    VFR   Marginal VFR   IFR   Intensive IFR   Very Intensive IFR
Visi :
Ceiling :
>= 8 km
>= 3000ft
5 to 8 km
1000 to 3000 ft
1500m to 5 km
500 to 1000 ft
800 to 1500m
200 to 500 ft
< 800m
< 200 ft
Symbols :   Thunderstorms  Fog  Heavy snow  Heavy precipitations  Wind > 20 kt
SIGMETs :     Misc.  Thunderstorms  Icing  Turbulence  Mountain Waves  Volcanic Ashes







- Airport Elevation : 157 ft
- IATA code : LIL
- Download approach charts


LFQQ - Lille Lesquin

CURRENT METAR :
  • 222330Z AUTO 23005KT CAVOK 16/13 Q1015 TEMPO BKN006

EXPIRED METARs :
  • 222300Z AUTO 23005KT 9999 BKN036 16/13 Q1015 TEMPO BKN006
  • 222230Z AUTO 24004KT 9999 BKN036 17/13 Q1015 TEMPO BKN006
  • 222200Z AUTO 26007KT CAVOK 17/13 Q1015 NOSIG
  • 222130Z AUTO 26007KT CAVOK 17/13 Q1015 NOSIG
  • 222100Z AUTO 23005KT CAVOK 18/13 Q1014 NOSIG

TAF TAF LFQQ
Valid from the 23 at 00:00 until the 24 at 06:00 UTC


222300Z 2300/2406 24010KT CAVOK
TEMPO 2300/2305 BKN006
TEMPO 2308/2320 24015G25KT
BECMG 2402/2404 4000 RA OVC008
ATIS : +33 3 20 16 19 54
No reported NOTAMs for that airfield.



MET'MAP, your aeronautical weather chart ! - Copyright ORBIFLY December 2007 - Disclaimer

ORBIFLY MET'MAP TEAM :

Programming & Development : Alexandra Zaïnal
Concept & Development : Baudouin d'Aumeries
Co-Development & Prog : Marc-Olivier Méhu
Technical & hardware support : Manuel Goepfert

Contact : metmap@orbifly.com




SOURCES & CREDITS :

   NOAA